Time;durP1;ratioP1;P1;durP2;ratioP2;P2;SDS_P1;SDS_P2;PMS_P1;PMS_P2;Temp;Humidity;BMP_temperature;BMP_pressure;BME280_temperature;BME280_humidity;BME280_pressure;Samples;Min_cycle;Max_cycle;Signal;HPM_P1;HPM_P2
2023/08/27 00:00:58;;;;;;;2.75;1.73;;;;;;;;;;5050388;28;20046;-65
2023/08/27 00:03:25;;;;;;;2.15;1.58;;;;;;;;;;5050771;28;20742;-65
2023/08/27 00:05:52;;;;;;;4.25;1.88;;;;;;;;;;5050753;28;20048;-65
2023/08/27 00:08:18;;;;;;;2.65;1.67;;;;;;;;;;5051336;28;20079;-64
2023/08/27 00:10:45;;;;;;;3.60;2.05;;;;;;;;;;5048425;28;20045;-65
2023/08/27 00:13:13;;;;;;;5.45;1.90;;;;;;;;;;5050891;28;20055;-65
2023/08/27 00:15:45;;;;;;;4.68;1.60;;;;;;;;;;5050206;28;20045;-65
2023/08/27 00:18:12;;;;;;;5.90;1.80;;;;;;;;;;5050921;28;20048;-65
2023/08/27 00:20:40;;;;;;;2.60;1.88;;;;;;;;;;5049384;28;20040;-65
2023/08/27 00:23:08;;;;;;;2.85;1.73;;;;;;;;;;5051038;28;20568;-65
2023/08/27 00:25:34;;;;;;;2.63;1.80;;;;;;;;;;5050392;28;20071;-68
2023/08/27 00:28:01;;;;;;;3.03;1.65;;;;;;;;;;5051108;28;20051;-64
2023/08/27 00:30:30;;;;;;;2.40;1.83;;;;;;;;;;5049223;28;20061;-65
2023/08/27 00:33:06;;;;;;;4.35;2.00;;;;;;;;;;5050876;28;20048;-66
2023/08/27 00:35:32;;;;;;;6.03;2.00;;;;;;;;;;5050969;28;20091;-65
2023/08/27 00:37:59;;;;;;;3.13;1.70;;;;;;;;;;5051476;28;20080;-64
2023/08/27 00:40:28;;;;;;;3.58;1.70;;;;;;;;;;5050592;28;20095;-65
2023/08/27 00:42:55;;;;;;;2.35;1.70;;;;;;;;;;5050966;28;20156;-65
2023/08/27 00:45:21;;;;;;;3.13;1.80;;;;;;;;;;5050220;28;20088;-65
2023/08/27 00:47:50;;;;;;;3.58;2.35;;;;;;;;;;5050146;28;20506;-65
2023/08/27 00:50:17;;;;;;;3.13;2.13;;;;;;;;;;5049276;28;20045;-64
2023/08/27 00:52:44;;;;;;;7.35;3.55;;;;;;;;;;5049759;28;20045;-66
2023/08/27 00:55:10;;;;;;;2.65;1.73;;;;;;;;;;5048850;28;20055;-65
2023/08/27 00:57:39;;;;;;;2.40;1.80;;;;;;;;;;5049578;28;20427;-65
2023/08/27 01:00:09;;;;;;;3.30;1.70;;;;;;;;;;5048595;28;20069;-65
2023/08/27 01:02:35;;;;;;;2.58;2.00;;;;;;;;;;5049577;28;20049;-65
2023/08/27 01:05:04;;;;;;;4.53;1.88;;;;;;;;;;5049930;28;20049;-65
2023/08/27 01:07:36;;;;;;;3.20;1.60;;;;;;;;;;5049675;28;20426;-65
2023/08/27 01:10:09;;;;;;;2.90;1.83;;;;;;;;;;5049227;28;20049;-64
2023/08/27 01:12:39;;;;;;;;;;;;;;;;;;5048960;28;20076;-64
2023/08/27 01:15:08;;;;;;;3.72;1.80;;;;;;;;;;5049922;28;19927;-65
2023/08/27 01:17:36;;;;;;;3.05;1.58;;;;;;;;;;5049775;28;20048;-65
2023/08/27 01:20:08;;;;;;;5.72;1.77;;;;;;;;;;5048134;28;20494;-64
2023/08/27 01:22:37;;;;;;;1.70;1.60;;;;;;;;;;5049632;28;20053;-65
2023/08/27 01:25:06;;;;;;;3.03;1.60;;;;;;;;;;5049469;28;20051;-66
2023/08/27 01:27:38;;;;;;;5.78;1.80;;;;;;;;;;5050060;28;20132;-64
2023/08/27 01:30:10;;;;;;;;;;;;;;;;;;5049015;28;20040;-65
2023/08/27 01:32:40;;;;;;;2.63;1.55;;;;;;;;;;5049873;28;20019;-65
2023/08/27 01:35:09;;;;;;;3.72;1.80;;;;;;;;;;5049024;28;20056;-65
2023/08/27 01:37:38;;;;;;;2.75;1.77;;;;;;;;;;5049633;28;20053;-65
2023/08/27 01:40:06;;;;;;;2.08;1.85;;;;;;;;;;5047263;28;20040;-65
2023/08/27 01:42:32;;;;;;;5.30;1.80;;;;;;;;;;5049884;28;20068;-65
2023/08/27 01:44:59;;;;;;;3.92;2.00;;;;;;;;;;5048956;28;20051;-65
2023/08/27 01:47:26;;;;;;;4.57;1.80;;;;;;;;;;5049430;28;20055;-65
2023/08/27 01:49:52;;;;;;;3.15;1.70;;;;;;;;;;5048427;28;20041;-65
2023/08/27 01:52:19;;;;;;;4.13;1.75;;;;;;;;;;5049312;28;20049;-65
2023/08/27 01:54:46;;;;;;;2.47;1.85;;;;;;;;;;5048515;28;20057;-66
2023/08/27 01:57:13;;;;;;;4.75;1.95;;;;;;;;;;5049164;28;20133;-65
2023/08/27 01:59:40;;;;;;;3.30;1.70;;;;;;;;;;5048420;28;20045;-65
2023/08/27 02:02:06;;;;;;;5.00;1.92;;;;;;;;;;5048819;28;20067;-65
2023/08/27 02:04:33;;;;;;;2.00;1.80;;;;;;;;;;5049623;28;20045;-65
2023/08/27 02:06:59;;;;;;;2.75;2.05;;;;;;;;;;5048985;28;20051;-65
2023/08/27 02:09:26;;;;;;;2.00;1.60;;;;;;;;;;5049105;28;20055;-64
2023/08/27 02:11:54;;;;;;;3.15;1.60;;;;;;;;;;5050668;28;20395;-65
2023/08/27 02:14:21;;;;;;;5.28;2.15;;;;;;;;;;5053064;28;20045;-65
2023/08/27 02:16:47;;;;;;;4.15;2.25;;;;;;;;;;5052597;28;20487;-65
2023/08/27 02:19:15;;;;;;;2.58;1.88;;;;;;;;;;5053034;28;20047;-65
2023/08/27 02:21:41;;;;;;;2.28;1.67;;;;;;;;;;5052085;28;20041;-65
2023/08/27 02:24:08;;;;;;;3.45;1.98;;;;;;;;;;5052388;28;20395;-65
2023/08/27 02:26:34;;;;;;;4.05;2.00;;;;;;;;;;5052600;28;20048;-65
2023/08/27 02:29:02;;;;;;;2.25;2.00;;;;;;;;;;5052343;28;20413;-65
2023/08/27 02:31:29;;;;;;;4.50;1.90;;;;;;;;;;5051899;28;20474;-65
2023/08/27 02:33:55;;;;;;;2.65;2.20;;;;;;;;;;5052442;28;20471;-65
2023/08/27 02:36:22;;;;;;;5.78;2.20;;;;;;;;;;5052849;28;20053;-65
2023/08/27 02:38:49;;;;;;;5.57;1.95;;;;;;;;;;5052175;28;20049;-65
2023/08/27 02:41:15;;;;;;;3.22;2.08;;;;;;;;;;5050444;28;20129;-65
2023/08/27 02:43:42;;;;;;;4.35;2.20;;;;;;;;;;5052016;28;20140;-64
2023/08/27 02:46:10;;;;;;;3.40;1.92;;;;;;;;;;5052371;28;20140;-65
2023/08/27 02:48:36;;;;;;;5.47;2.40;;;;;;;;;;5052075;28;20334;-65
2023/08/27 02:51:03;;;;;;;2.92;2.17;;;;;;;;;;5051420;28;20483;-66
2023/08/27 02:53:29;;;;;;;3.90;1.80;;;;;;;;;;5051190;28;20056;-65
2023/08/27 02:55:56;;;;;;;4.05;1.95;;;;;;;;;;5051860;28;20075;-65
2023/08/27 02:58:23;;;;;;;3.78;2.28;;;;;;;;;;5051957;28;20041;-65
2023/08/27 03:00:49;;;;;;;3.60;1.90;;;;;;;;;;5051025;28;20536;-64
2023/08/27 03:03:17;;;;;;;2.95;2.30;;;;;;;;;;5052391;28;20069;-65
2023/08/27 03:05:44;;;;;;;2.13;1.90;;;;;;;;;;5051820;28;20127;-65
2023/08/27 03:08:10;;;;;;;2.60;1.88;;;;;;;;;;5051978;28;20041;-65
2023/08/27 03:10:37;;;;;;;4.43;1.98;;;;;;;;;;5049174;28;20128;-66
2023/08/27 03:13:04;;;;;;;3.78;1.77;;;;;;;;;;5052068;28;20049;-64
2023/08/27 03:15:30;;;;;;;2.38;1.90;;;;;;;;;;5051553;28;20052;-66
2023/08/27 03:17:57;;;;;;;3.65;2.20;;;;;;;;;;5052069;28;20088;-66
2023/08/27 03:20:25;;;;;;;3.95;2.20;;;;;;;;;;5050845;28;20051;-65
2023/08/27 03:22:51;;;;;;;2.10;1.90;;;;;;;;;;5051274;28;20055;-66
2023/08/27 03:25:18;;;;;;;2.25;1.98;;;;;;;;;;5052574;28;20084;-65
2023/08/27 03:27:44;;;;;;;2.03;1.60;;;;;;;;;;5051457;28;20045;-65
2023/08/27 03:30:12;;;;;;;3.08;2.03;;;;;;;;;;5050711;28;20041;-66
2023/08/27 03:32:38;;;;;;;2.17;1.70;;;;;;;;;;5051103;28;20057;-65
2023/08/27 03:35:06;;;;;;;2.75;2.00;;;;;;;;;;5051638;28;20045;-66
2023/08/27 03:37:34;;;;;;;4.65;2.25;;;;;;;;;;5051301;28;20052;-65
2023/08/27 03:40:01;;;;;;;3.65;1.83;;;;;;;;;;5050506;28;20049;-65
2023/08/27 03:42:27;;;;;;;5.07;2.83;;;;;;;;;;5050630;28;20048;-65
2023/08/27 03:44:54;;;;;;;3.28;1.73;;;;;;;;;;5051481;28;20045;-65
2023/08/27 03:47:21;;;;;;;1.70;1.60;;;;;;;;;;5050672;28;20051;-65
2023/08/27 03:49:47;;;;;;;2.53;1.75;;;;;;;;;;5050413;28;20151;-66
2023/08/27 03:52:14;;;;;;;3.25;1.85;;;;;;;;;;5050091;28;20041;-66
2023/08/27 03:54:41;;;;;;;3.20;1.73;;;;;;;;;;5049425;28;20517;-65
2023/08/27 03:57:08;;;;;;;2.92;1.83;;;;;;;;;;5051230;28;20716;-66
2023/08/27 03:59:35;;;;;;;4.45;1.65;;;;;;;;;;5049864;28;20049;-65
2023/08/27 04:02:01;;;;;;;3.80;1.65;;;;;;;;;;5051103;28;20437;-66
2023/08/27 04:04:28;;;;;;;1.98;1.77;;;;;;;;;;5050537;28;20053;-66
2023/08/27 04:06:55;;;;;;;2.88;1.83;;;;;;;;;;5050605;28;20049;-65
2023/08/27 04:09:22;;;;;;;2.33;1.65;;;;;;;;;;5050761;28;20041;-65
2023/08/27 04:11:50;;;;;;;2.72;1.80;;;;;;;;;;5048772;28;20104;-65
2023/08/27 04:14:16;;;;;;;4.80;2.00;;;;;;;;;;5050464;28;20139;-65
2023/08/27 04:16:43;;;;;;;3.47;2.03;;;;;;;;;;5050680;28;20048;-66
2023/08/27 04:19:09;;;;;;;1.95;1.73;;;;;;;;;;5050234;28;20490;-66
2023/08/27 04:24:10;;;;;;;2.60;1.60;;;;;;;;;;5049907;28;20041;-66
2023/08/27 04:26:37;;;;;;;3.50;1.50;;;;;;;;;;5051155;28;20413;-67
2023/08/27 04:29:05;;;;;;;3.88;1.80;;;;;;;;;;5051407;28;20401;-67
2023/08/27 04:31:32;;;;;;;3.95;1.63;;;;;;;;;;5050190;28;20051;-66
2023/08/27 04:33:58;;;;;;;2.00;1.80;;;;;;;;;;5050497;28;20052;-66
2023/08/27 04:36:25;;;;;;;6.53;2.10;;;;;;;;;;5050666;28;20053;-66
2023/08/27 04:38:51;;;;;;;4.40;2.10;;;;;;;;;;5051236;28;20053;-68
2023/08/27 04:41:18;;;;;;;6.15;1.90;;;;;;;;;;5049416;28;20313;-68
2023/08/27 04:43:44;;;;;;;2.42;1.83;;;;;;;;;;5051405;28;20410;-69
2023/08/27 04:46:12;;;;;;;2.17;1.90;;;;;;;;;;5050648;28;20056;-68
2023/08/27 04:48:39;;;;;;;1.65;1.45;;;;;;;;;;5051511;28;21682;-68
2023/08/27 04:51:06;;;;;;;3.67;2.00;;;;;;;;;;5050273;28;20041;-68
2023/08/27 04:53:32;;;;;;;2.30;1.73;;;;;;;;;;5050163;28;20518;-67
2023/08/27 04:55:59;;;;;;;2.13;1.70;;;;;;;;;;5050451;28;20055;-67
2023/08/27 04:58:25;;;;;;;3.47;1.60;;;;;;;;;;5050957;28;20053;-68
2023/08/27 05:00:52;;;;;;;4.60;1.70;;;;;;;;;;5050097;28;20040;-68
2023/08/27 05:03:20;;;;;;;2.35;1.70;;;;;;;;;;5050281;28;20045;-68
2023/08/27 05:05:47;;;;;;;4.18;1.80;;;;;;;;;;5050851;28;20044;-67
2023/08/27 05:08:13;;;;;;;6.63;2.35;;;;;;;;;;5050445;28;20045;-68
2023/08/27 05:10:40;;;;;;;1.90;1.77;;;;;;;;;;5049166;28;20044;-68
2023/08/27 05:13:06;;;;;;;1.98;1.70;;;;;;;;;;5050547;28;20482;-68
2023/08/27 05:15:33;;;;;;;2.78;1.58;;;;;;;;;;5050453;28;20052;-68
2023/08/27 05:18:00;;;;;;;2.45;2.00;;;;;;;;;;5050205;28;20053;-67
2023/08/27 05:20:27;;;;;;;1.70;1.58;;;;;;;;;;5050254;28;20045;-68
2023/08/27 05:22:54;;;;;;;3.28;1.52;;;;;;;;;;5050149;28;20075;-68
2023/08/27 05:25:21;;;;;;;3.38;1.90;;;;;;;;;;5050460;28;20041;-68
2023/08/27 05:27:47;;;;;;;2.67;1.63;;;;;;;;;;5050708;28;20486;-68
2023/08/27 05:30:14;;;;;;;4.03;2.03;;;;;;;;;;5049205;28;20049;-68
2023/08/27 05:32:41;;;;;;;1.85;1.60;;;;;;;;;;5051036;28;20055;-66
2023/08/27 05:35:08;;;;;;;1.83;1.70;;;;;;;;;;5050235;28;20505;-66
2023/08/27 05:37:37;;;;;;;2.67;1.70;;;;;;;;;;5050536;28;20047;-68
2023/08/27 05:40:05;;;;;;;2.35;1.90;;;;;;;;;;5049165;28;20052;-67
2023/08/27 05:42:31;;;;;;;2.08;1.60;;;;;;;;;;5049448;28;20075;-67
2023/08/27 05:44:58;;;;;;;2.83;1.70;;;;;;;;;;5051311;28;20051;-67
2023/08/27 05:47:26;;;;;;;4.40;1.70;;;;;;;;;;5054477;28;20057;-66
2023/08/27 05:49:53;;;;;;;3.97;2.03;;;;;;;;;;5053450;28;20048;-67
2023/08/27 05:52:19;;;;;;;2.33;1.92;;;;;;;;;;5054187;28;20045;-67
2023/08/27 05:54:47;;;;;;;2.72;1.70;;;;;;;;;;5053640;28;20055;-67
2023/08/27 05:57:14;;;;;;;3.88;1.80;;;;;;;;;;5053480;28;20048;-67
2023/08/27 05:59:41;;;;;;;3.28;1.88;;;;;;;;;;5053179;28;20045;-67
2023/08/27 06:02:09;;;;;;;6.40;2.03;;;;;;;;;;5053258;28;20049;-67
2023/08/27 06:04:35;;;;;;;2.65;2.10;;;;;;;;;;5054068;28;20564;-67
2023/08/27 06:07:02;;;;;;;2.22;1.92;;;;;;;;;;5053765;28;20041;-67
2023/08/27 06:09:28;;;;;;;3.13;2.05;;;;;;;;;;5052620;28;20053;-67
2023/08/27 06:11:58;;;;;;;3.50;1.90;;;;;;;;;;5053466;28;20045;-66
2023/08/27 06:14:25;;;;;;;2.42;1.75;;;;;;;;;;5054136;28;20456;-67
2023/08/27 06:16:51;;;;;;;4.30;1.90;;;;;;;;;;5053270;28;20049;-66
2023/08/27 06:19:18;;;;;;;4.03;1.63;;;;;;;;;;5053980;28;20045;-66
2023/08/27 06:21:44;;;;;;;3.00;1.75;;;;;;;;;;5052705;28;20044;-66
2023/08/27 06:24:11;;;;;;;2.92;1.95;;;;;;;;;;5053831;28;20294;-66
2023/08/27 06:26:37;;;;;;;2.80;1.77;;;;;;;;;;5052533;28;20506;-66
2023/08/27 06:29:05;;;;;;;2.30;1.55;;;;;;;;;;5053803;28;20047;-67
2023/08/27 06:31:32;;;;;;;2.75;1.85;;;;;;;;;;5053357;28;20167;-66
2023/08/27 06:33:59;;;;;;;2.30;1.60;;;;;;;;;;5053140;28;20041;-66
2023/08/27 06:36:25;;;;;;;3.83;1.98;;;;;;;;;;5034751;28;20057;-66
2023/08/27 06:38:52;;;;;;;2.67;1.60;;;;;;;;;;5032890;28;20053;-66
2023/08/27 06:41:18;;;;;;;3.88;1.75;;;;;;;;;;5032621;28;20132;-66
2023/08/27 06:43:45;;;;;;;3.85;1.75;;;;;;;;;;5033306;28;20047;-67
2023/08/27 06:46:13;;;;;;;2.33;1.65;;;;;;;;;;5033514;28;20050;-68
2023/08/27 06:48:39;;;;;;;3.95;1.80;;;;;;;;;;5033144;28;20406;-66
2023/08/27 06:51:06;;;;;;;1.60;1.20;;;;;;;;;;5032745;28;20050;-68
2023/08/27 06:53:32;;;;;;;1.85;1.65;;;;;;;;;;5037801;28;20041;-66
2023/08/27 06:55:59;;;;;;;1.75;1.50;;;;;;;;;;5052856;28;20051;-66
2023/08/27 06:58:25;;;;;;;2.15;1.70;;;;;;;;;;5053057;28;20420;-67
2023/08/27 07:00:52;;;;;;;4.20;1.48;;;;;;;;;;5052051;28;20049;-67
2023/08/27 07:03:20;;;;;;;2.83;1.90;;;;;;;;;;5052630;28;20127;-66
2023/08/27 07:05:46;;;;;;;3.03;1.48;;;;;;;;;;5052415;28;20049;-66
2023/08/27 07:08:13;;;;;;;3.42;1.60;;;;;;;;;;5052787;28;20049;-67
2023/08/27 07:10:39;;;;;;;2.25;1.58;;;;;;;;;;5051760;28;20045;-67
2023/08/27 07:13:06;;;;;;;2.92;1.50;;;;;;;;;;5052732;28;20045;-66
2023/08/27 07:15:32;;;;;;;3.10;1.67;;;;;;;;;;5052077;28;20053;-68
2023/08/27 07:17:59;;;;;;;2.22;1.48;;;;;;;;;;5052809;28;20049;-67
2023/08/27 07:20:27;;;;;;;2.20;1.70;;;;;;;;;;5051510;28;20055;-67
2023/08/27 07:22:53;;;;;;;3.70;1.60;;;;;;;;;;5052133;28;20063;-66
2023/08/27 07:25:21;;;;;;;2.55;1.65;;;;;;;;;;5052252;28;20518;-67
2023/08/27 07:27:48;;;;;;;2.97;1.65;;;;;;;;;;5051128;28;20053;-67
2023/08/27 07:30:15;;;;;;;3.17;1.70;;;;;;;;;;5050994;28;20049;-66
2023/08/27 07:32:41;;;;;;;2.50;1.42;;;;;;;;;;5051406;28;20498;-66
2023/08/27 07:35:08;;;;;;;3.17;1.60;;;;;;;;;;5052760;28;20048;-66
2023/08/27 07:37:36;;;;;;;2.55;1.55;;;;;;;;;;5052580;28;20081;-67
2023/08/27 07:40:04;;;;;;;2.53;1.55;;;;;;;;;;5052407;28;20049;-67
2023/08/27 07:42:31;;;;;;;2.78;1.60;;;;;;;;;;5051979;28;20049;-67
2023/08/27 07:44:57;;;;;;;3.10;1.40;;;;;;;;;;5052184;28;20045;-67
2023/08/27 07:47:24;;;;;;;2.72;1.48;;;;;;;;;;5051327;28;20083;-67
2023/08/27 07:49:50;;;;;;;3.70;1.73;;;;;;;;;;5050684;28;20051;-67
2023/08/27 07:52:17;;;;;;;1.27;1.17;;;;;;;;;;5050652;28;20048;-66
2023/08/27 07:54:45;;;;;;;3.95;1.33;;;;;;;;;;5050075;28;20057;-67
2023/08/27 07:57:11;;;;;;;3.05;1.70;;;;;;;;;;5051578;28;20292;-67
2023/08/27 07:59:38;;;;;;;1.73;1.30;;;;;;;;;;5050696;28;20052;-66
2023/08/27 08:02:05;;;;;;;3.45;1.48;;;;;;;;;;5051933;28;20471;-67
2023/08/27 08:04:31;;;;;;;2.33;1.42;;;;;;;;;;5051347;28;20045;-67
2023/08/27 08:06:58;;;;;;;3.63;1.75;;;;;;;;;;5051939;28;20049;-67
2023/08/27 08:09:24;;;;;;;3.20;1.75;;;;;;;;;;5051662;28;20049;-66
2023/08/27 08:11:52;;;;;;;2.83;1.48;;;;;;;;;;5049845;28;20139;-69
2023/08/27 08:14:19;;;;;;;1.75;1.45;;;;;;;;;;5050986;28;20052;-67
2023/08/27 08:16:46;;;;;;;2.25;1.40;;;;;;;;;;5051248;28;20055;-67
2023/08/27 08:19:12;;;;;;;5.03;1.63;;;;;;;;;;5050567;28;20053;-68
2023/08/27 08:21:39;;;;;;;2.72;1.52;;;;;;;;;;5049412;28;20053;-69
2023/08/27 08:24:06;;;;;;;2.13;1.67;;;;;;;;;;5050922;28;20045;-66
2023/08/27 08:26:33;;;;;;;2.45;1.48;;;;;;;;;;5051313;28;20045;-68
2023/08/27 08:29:00;;;;;;;3.15;1.65;;;;;;;;;;5051055;28;20049;-66
2023/08/27 08:31:27;;;;;;;1.98;1.77;;;;;;;;;;5049973;28;20128;-68
2023/08/27 08:33:53;;;;;;;3.42;1.73;;;;;;;;;;5051434;28;20048;-66
2023/08/27 08:36:20;;;;;;;2.53;1.60;;;;;;;;;;5050838;28;20132;-68
2023/08/27 08:38:47;;;;;;;2.53;1.60;;;;;;;;;;5050987;28;20041;-68
2023/08/27 08:41:19;;;;;;;2.38;1.40;;;;;;;;;;5049054;28;20045;-67
2023/08/27 08:43:50;;;;;;;2.63;1.55;;;;;;;;;;5050812;28;20057;-68
2023/08/27 08:46:20;;;;;;;4.30;1.60;;;;;;;;;;5049998;28;20087;-68
2023/08/27 08:48:50;;;;;;;3.00;1.73;;;;;;;;;;5049672;28;20129;-69
2023/08/27 08:51:23;;;;;;;2.38;1.58;;;;;;;;;;5049494;28;20244;-66
2023/08/27 08:53:51;;;;;;;2.05;1.70;;;;;;;;;;5049780;28;20049;-68
2023/08/27 08:56:23;;;;;;;3.50;1.67;;;;;;;;;;5050203;28;20394;-68
2023/08/27 08:58:55;;;;;;;2.92;1.60;;;;;;;;;;5050122;28;20044;-67
2023/08/27 09:01:24;;;;;;;2.35;1.60;;;;;;;;;;5049112;28;20041;-69
2023/08/27 09:03:52;;;;;;;4.45;1.70;;;;;;;;;;5050670;28;20520;-68
2023/08/27 09:06:19;;;;;;;2.80;1.85;;;;;;;;;;5050307;28;20503;-68
2023/08/27 09:08:47;;;;;;;3.22;1.63;;;;;;;;;;5049894;28;20319;-68
2023/08/27 09:11:15;;;;;;;2.03;1.73;;;;;;;;;;5048965;28;20421;-69
2023/08/27 09:13:42;;;;;;;2.22;1.58;;;;;;;;;;5048930;28;20136;-68
2023/08/27 09:16:09;;;;;;;4.30;1.70;;;;;;;;;;5050836;28;20151;-68
2023/08/27 09:18:37;;;;;;;1.63;1.50;;;;;;;;;;5050377;28;20418;-67
2023/08/27 09:21:06;;;;;;;2.88;1.48;;;;;;;;;;5049481;28;20045;-69
2023/08/27 09:23:37;;;;;;;1.63;1.42;;;;;;;;;;5049847;28;20064;-69
2023/08/27 09:26:05;;;;;;;2.03;1.33;;;;;;;;;;5049414;28;20110;-68
2023/08/27 09:28:33;;;;;;;3.17;1.50;;;;;;;;;;5050037;28;20052;-69
2023/08/27 09:31:00;;;;;;;1.88;1.40;;;;;;;;;;5049648;28;20056;-68
2023/08/27 09:33:39;;;;;;;3.40;1.30;;;;;;;;;;5049689;28;20045;-68
2023/08/27 09:36:06;;;;;;;3.25;1.30;;;;;;;;;;5050356;28;20069;-69
2023/08/27 09:38:33;;;;;;;2.20;1.38;;;;;;;;;;5050321;28;20483;-68
2023/08/27 09:41:13;;;;;;;2.25;1.38;;;;;;;;;;5048405;28;20045;-68
2023/08/27 09:43:39;;;;;;;1.45;1.27;;;;;;;;;;5050125;28;20053;-68
2023/08/27 09:46:10;;;;;;;2.25;1.50;;;;;;;;;;5049714;28;20047;-68
2023/08/27 09:48:38;;;;;;;2.47;1.40;;;;;;;;;;5050002;28;20075;-68
2023/08/27 09:51:05;;;;;;;2.42;1.25;;;;;;;;;;5049107;28;20131;-68
2023/08/27 09:53:32;;;;;;;2.00;1.60;;;;;;;;;;5049041;28;20052;-68
2023/08/27 09:56:01;;;;;;;1.80;1.33;;;;;;;;;;5049695;28;20406;-68
2023/08/27 09:58:28;;;;;;;4.40;1.30;;;;;;;;;;5050005;28;20053;-68
2023/08/27 10:00:59;;;;;;;1.75;1.38;;;;;;;;;;5049010;28;20044;-69
2023/08/27 10:03:25;;;;;;;1.80;1.33;;;;;;;;;;5049716;28;20052;-68
2023/08/27 10:05:53;;;;;;;4.15;1.90;;;;;;;;;;5049192;28;20049;-68
2023/08/27 10:08:20;;;;;;;2.15;1.50;;;;;;;;;;5048723;28;20049;-68
2023/08/27 10:10:47;;;;;;;4.03;1.63;;;;;;;;;;5048638;28;20049;-68
2023/08/27 10:13:15;;;;;;;3.88;1.70;;;;;;;;;;5049676;28;20067;-68
2023/08/27 10:15:42;;;;;;;2.20;1.20;;;;;;;;;;5049511;28;20051;-68
2023/08/27 10:18:13;;;;;;;1.42;1.30;;;;;;;;;;5049544;28;20067;-68
2023/08/27 10:20:41;;;;;;;2.47;1.20;;;;;;;;;;5049076;28;20053;-68
2023/08/27 10:23:11;;;;;;;2.25;1.30;;;;;;;;;;5061443;22;20044;-68
2023/08/27 10:25:38;;;;;;;2.30;1.70;;;;;;;;;;5048492;28;20410;-65
2023/08/27 10:28:07;;;;;;;4.60;1.50;;;;;;;;;;5048595;28;20395;-67
2023/08/27 10:30:35;;;;;;;2.70;1.40;;;;;;;;;;5048287;28;20053;-67
2023/08/27 10:33:02;;;;;;;3.38;1.50;;;;;;;;;;5051856;28;20076;-68
2023/08/27 10:35:32;;;;;;;2.70;1.25;;;;;;;;;;5032062;28;20079;-67
2023/08/27 10:37:59;;;;;;;2.00;1.30;;;;;;;;;;5032658;28;20053;-67
2023/08/27 10:40:28;;;;;;;2.20;1.30;;;;;;;;;;5032109;28;20041;-68
2023/08/27 10:43:07;;;;;;;1.45;1.30;;;;;;;;;;5031882;28;20465;-68
2023/08/27 10:45:37;;;;;;;2.42;1.38;;;;;;;;;;5032911;28;20049;-67
2023/08/27 10:48:06;;;;;;;1.30;1.15;;;;;;;;;;5032491;28;20049;-68
2023/08/27 10:50:47;;;;;;;2.65;1.20;;;;;;;;;;5031598;28;20052;-67
2023/08/27 10:53:15;;;;;;;4.07;1.30;;;;;;;;;;5031907;28;20478;-67
2023/08/27 10:55:44;;;;;;;1.42;1.17;;;;;;;;;;5032701;28;20476;-67
2023/08/27 10:58:16;;;;;;;2.55;1.10;;;;;;;;;;5033023;28;20041;-67
2023/08/27 11:01:02;;;;;;;2.10;1.30;;;;;;;;;;5040589;28;20055;-67
2023/08/27 11:03:29;;;;;;;1.67;1.00;;;;;;;;;;5052643;28;20049;-67
2023/08/27 11:06:13;;;;;;;2.13;0.95;;;;;;;;;;5051759;28;20055;-67
2023/08/27 11:08:41;;;;;;;1.33;0.90;;;;;;;;;;5052525;28;20057;-67
2023/08/27 11:11:13;;;;;;;1.08;0.98;;;;;;;;;;5050949;28;20425;-66
2023/08/27 11:13:41;;;;;;;1.25;0.95;;;;;;;;;;5052276;28;20049;-67
2023/08/27 11:16:13;;;;;;;1.88;0.82;;;;;;;;;;5051517;28;20052;-66
2023/08/27 11:18:48;;;;;;;3.75;1.10;;;;;;;;;;5052415;28;20083;-66
2023/08/27 11:21:39;;;;;;;2.10;1.00;;;;;;;;;;5050824;28;20074;-67
2023/08/27 11:24:16;;;;;;;2.03;0.93;;;;;;;;;;5052084;28;20045;-67
2023/08/27 11:26:47;;;;;;;1.65;1.00;;;;;;;;;;5040335;28;20053;-67
2023/08/27 11:29:15;;;;;;;1.92;0.90;;;;;;;;;;5031287;28;20037;-67
2023/08/27 11:31:42;;;;;;;1.35;0.88;;;;;;;;;;5031310;28;20045;-66
2023/08/27 11:34:12;;;;;;;1.13;0.90;;;;;;;;;;5032392;28;20415;-66
2023/08/27 11:36:40;;;;;;;1.30;0.80;;;;;;;;;;5031778;28;20373;-66
2023/08/27 11:39:07;;;;;;;3.10;1.05;;;;;;;;;;5031928;28;20057;-67
2023/08/27 11:41:36;;;;;;;1.30;0.90;;;;;;;;;;5031452;28;20100;-67
2023/08/27 11:44:04;;;;;;;2.28;0.90;;;;;;;;;;5032071;28;20115;-66
2023/08/27 11:46:31;;;;;;;2.13;0.90;;;;;;;;;;5032079;28;20415;-66
2023/08/27 11:48:58;;;;;;;1.90;1.20;;;;;;;;;;5031602;28;20050;-66
2023/08/27 11:51:24;;;;;;;1.42;1.13;;;;;;;;;;5031727;28;20045;-67
2023/08/27 11:53:51;;;;;;;1.15;0.85;;;;;;;;;;5045667;28;20047;-66
2023/08/27 11:56:19;;;;;;;1.20;0.75;;;;;;;;;;5032132;28;20060;-67
2023/08/27 11:58:49;;;;;;;1.23;0.93;;;;;;;;;;5031582;28;20418;-67
2023/08/27 12:01:17;;;;;;;1.50;0.88;;;;;;;;;;5031066;28;20057;-66
2023/08/27 12:03:44;;;;;;;1.95;0.77;;;;;;;;;;5031348;28;20049;-66
2023/08/27 12:06:17;;;;;;;0.70;0.68;;;;;;;;;;5031581;28;20053;-66
2023/08/27 12:08:47;;;;;;;0.82;0.70;;;;;;;;;;5031365;28;20606;-66
2023/08/27 12:11:14;;;;;;;1.27;0.80;;;;;;;;;;5035191;28;20041;-66
2023/08/27 12:13:42;;;;;;;0.98;0.70;;;;;;;;;;5050962;28;20045;-66
2023/08/27 12:16:09;;;;;;;1.08;0.70;;;;;;;;;;5050864;28;20052;-66
2023/08/27 12:18:37;;;;;;;1.38;0.93;;;;;;;;;;5050849;28;20053;-66
2023/08/27 12:21:07;;;;;;;1.08;0.80;;;;;;;;;;5050670;28;20146;-66
2023/08/27 12:23:34;;;;;;;1.00;0.80;;;;;;;;;;5051231;28;20561;-67
2023/08/27 12:26:03;;;;;;;1.80;0.85;;;;;;;;;;5050833;28;20418;-67
2023/08/27 12:28:32;;;;;;;1.10;0.80;;;;;;;;;;5051160;28;20059;-65
2023/08/27 12:30:59;;;;;;;0.70;0.70;;;;;;;;;;5050030;28;20513;-65
2023/08/27 12:33:39;;;;;;;1.15;0.70;;;;;;;;;;5050466;28;20063;-65
2023/08/27 12:36:06;;;;;;;1.55;0.73;;;;;;;;;;5051383;28;20473;-65
2023/08/27 12:38:33;;;;;;;2.80;1.00;;;;;;;;;;5052327;28;20084;-67
2023/08/27 12:41:00;;;;;;;1.40;0.85;;;;;;;;;;5046087;28;20049;-65
2023/08/27 12:43:27;;;;;;;1.17;0.82;;;;;;;;;;5032196;28;20057;-68
2023/08/27 12:45:54;;;;;;;1.20;0.82;;;;;;;;;;5031474;28;20049;-67
2023/08/27 12:48:21;;;;;;;1.95;0.80;;;;;;;;;;5030341;28;20049;-67
2023/08/27 12:50:49;;;;;;;1.83;0.77;;;;;;;;;;5029312;28;20046;-65
2023/08/27 12:53:15;;;;;;;1.13;0.95;;;;;;;;;;5032634;28;20045;-67
2023/08/27 12:55:42;;;;;;;1.10;0.82;;;;;;;;;;5049510;28;20045;-66
2023/08/27 12:58:08;;;;;;;0.85;0.70;;;;;;;;;;5049901;28;20053;-66
2023/08/27 13:00:35;;;;;;;0.98;0.80;;;;;;;;;;5049354;28;20136;-65
2023/08/27 13:03:01;;;;;;;1.10;0.70;;;;;;;;;;5049794;28;20045;-66
2023/08/27 13:05:28;;;;;;;1.45;0.80;;;;;;;;;;5050182;28;20049;-65
2023/08/27 13:08:00;;;;;;;2.47;0.90;;;;;;;;;;5049719;28;20045;-66
2023/08/27 13:10:26;;;;;;;;;;;;;;;;;;5049839;28;20094;-65
2023/08/27 13:12:53;;;;;;;0.80;0.80;;;;;;;;;;5029192;28;19921;-66
2023/08/27 13:15:19;;;;;;;2.35;0.95;;;;;;;;;;5029838;28;20046;-65
2023/08/27 13:17:46;;;;;;;1.63;1.08;;;;;;;;;;5029739;28;20420;-66
2023/08/27 13:20:12;;;;;;;0.80;0.80;;;;;;;;;;5029205;28;20048;-66
2023/08/27 13:22:39;;;;;;;1.48;0.90;;;;;;;;;;5029433;28;20060;-65
2023/08/27 13:25:08;;;;;;;0.90;0.80;;;;;;;;;;5030061;28;20128;-66
2023/08/27 13:27:35;;;;;;;1.02;0.80;;;;;;;;;;5030286;28;20045;-66
2023/08/27 13:30:01;;;;;;;1.10;0.80;;;;;;;;;;5029042;28;20546;-66
2023/08/27 13:32:28;;;;;;;0.88;0.80;;;;;;;;;;5029941;28;20476;-67
2023/08/27 13:34:54;;;;;;;1.65;0.80;;;;;;;;;;5029848;28;20411;-67
2023/08/27 13:37:21;;;;;;;1.05;0.90;;;;;;;;;;5030261;28;20045;-67
2023/08/27 13:39:47;;;;;;;0.85;0.80;;;;;;;;;;5028671;28;20491;-67
2023/08/27 13:42:15;;;;;;;1.20;0.82;;;;;;;;;;5042435;28;20051;-67
2023/08/27 13:44:42;;;;;;;0.95;0.80;;;;;;;;;;5049700;28;20409;-67
2023/08/27 13:47:08;;;;;;;1.67;0.77;;;;;;;;;;5049913;28;20516;-65
2023/08/27 13:49:35;;;;;;;1.98;0.75;;;;;;;;;;5048298;28;20056;-65
2023/08/27 13:52:01;;;;;;;2.13;0.73;;;;;;;;;;5049287;28;20045;-66
2023/08/27 13:54:28;;;;;;;1.58;0.93;;;;;;;;;;5035023;28;20438;-68
2023/08/27 13:56:54;;;;;;;1.00;0.90;;;;;;;;;;5029972;28;20072;-68
2023/08/27 13:59:22;;;;;;;0.93;0.80;;;;;;;;;;5029937;28;20053;-66
2023/08/27 14:01:49;;;;;;;1.10;0.80;;;;;;;;;;5028498;28;20051;-66
2023/08/27 14:04:16;;;;;;;1.42;0.77;;;;;;;;;;5029768;28;20049;-66
2023/08/27 14:06:43;;;;;;;2.67;2.25;;;;;;;;;;5031540;28;20136;-66
2023/08/27 14:09:10;;;;;;;9.20;5.55;;;;;;;;;;5033180;28;20055;-66
2023/08/27 14:11:39;;;;;;;4.47;4.00;;;;;;;;;;5031523;28;20224;-67
2023/08/27 14:14:05;;;;;;;7.82;5.80;;;;;;;;;;5033370;28;20049;-67
2023/08/27 14:16:33;;;;;;;2.22;1.63;;;;;;;;;;5032543;28;20045;-66
2023/08/27 14:19:00;;;;;;;2.53;2.22;;;;;;;;;;5033517;28;20063;-66
2023/08/27 14:21:26;;;;;;;1.05;0.95;;;;;;;;;;5031639;28;20048;-67
2023/08/27 14:23:53;;;;;;;1.88;1.63;;;;;;;;;;5033691;28;20067;-67
2023/08/27 14:26:19;;;;;;;1.17;1.05;;;;;;;;;;5033369;28;20050;-67
2023/08/27 14:28:46;;;;;;;1.75;1.65;;;;;;;;;;5033346;28;20049;-67
2023/08/27 14:31:12;;;;;;;3.25;1.00;;;;;;;;;;5032415;28;20045;-67
2023/08/27 14:33:40;;;;;;;1.20;0.85;;;;;;;;;;5032734;28;20046;-67
2023/08/27 14:36:07;;;;;;;1.00;0.90;;;;;;;;;;5032936;28;20407;-67
2023/08/27 14:38:33;;;;;;;0.85;0.80;;;;;;;;;;5032939;28;20179;-65
2023/08/27 14:41:00;;;;;;;1.33;0.88;;;;;;;;;;5035220;28;20124;-65
2023/08/27 14:43:27;;;;;;;1.30;0.90;;;;;;;;;;5052157;28;20052;-66
2023/08/27 14:45:53;;;;;;;1.58;0.80;;;;;;;;;;5052862;28;20414;-67
2023/08/27 14:48:20;;;;;;;1.80;1.55;;;;;;;;;;5052272;28;20422;-66